Time;durP1;ratioP1;P1;durP2;ratioP2;P2;SDS_P1;SDS_P2;PMS_P1;PMS_P2;Temp;Humidity;BMP_temperature;BMP_pressure;BME280_temperature;BME280_humidity;BME280_pressure;Samples;Min_cycle;Max_cycle;Signal;HPM_P1;HPM_P2
2022/08/12 00:44:57;;;;;;;;;16.67;16.67;;;;;22.43;42.49;101132.47;5085562;28;45345;-75
2022/08/12 00:47:23;;;;;;;;;17.33;17.33;;;;;22.41;43.08;101131.88;5084170;28;45364;-74
2022/08/12 00:49:49;;;;;;;;;18.00;17.67;;;;;22.39;43.49;101133.19;5071033;28;45290;-75
2022/08/12 00:52:16;;;;;;;;;19.00;19.00;;;;;22.36;43.50;101130.97;5070156;28;48123;-75
2022/08/12 00:54:57;;;;;;;;;16.67;16.67;;;;;22.38;43.45;101134.25;5082739;28;44633;-74
2022/08/12 00:57:30;;;;;;;;;16.33;16.33;;;;;22.31;43.66;101121.72;5071512;28;45386;-75
2022/08/12 01:00:01;;;;;;;;;18.00;17.00;;;;;22.31;43.53;101129.00;5082820;28;47418;-74
2022/08/12 01:02:30;;;;;;;;;17.67;17.00;;;;;22.30;42.95;101125.47;5090609;28;45248;-75
2022/08/12 01:13:22;;;;;;;;;17.00;17.00;;;;;22.28;42.78;101119.50;5078245;28;45508;-74
2022/08/12 01:15:50;;;;;;;;;14.00;14.00;;;;;22.29;43.06;101125.72;5075143;27;44798;-75
2022/08/12 01:18:18;;;;;;;;;15.00;15.00;;;;;22.24;43.20;101120.22;5099556;27;45279;-75
2022/08/12 01:21:02;;;;;;;;;18.00;17.00;;;;;22.23;43.21;101132.94;5088193;28;45389;-75
2022/08/12 01:24:00;;;;;;;;;16.00;16.00;;;;;22.15;42.90;101127.91;5082356;28;46051;-74
2022/08/12 01:26:27;;;;;;;;;20.00;17.00;;;;;22.08;43.20;101122.63;5047528;28;45390;-74
2022/08/12 01:28:57;;;;;;;;;17.00;17.00;;;;;22.03;43.18;101128.78;5089361;28;45536;-75
2022/08/12 01:31:24;;;;;;;;;16.33;16.33;;;;;22.01;43.28;101132.78;5086764;28;46279;-74
2022/08/12 01:34:16;;;;;;;;;17.67;16.33;;;;;21.90;43.53;101129.06;5081488;28;45373;-74
2022/08/12 01:37:02;;;;;;;;;16.00;16.00;;;;;21.87;43.49;101127.66;5087199;28;44668;-74
2022/08/12 01:39:52;;;;;;;;;16.00;16.00;;;;;21.84;43.41;101130.06;5078949;28;44854;-74
2022/08/12 01:42:21;;;;;;;;;17.67;17.67;;;;;21.78;43.84;101112.88;5077063;28;45448;-74
2022/08/12 01:44:49;;;;;;;;;16.00;16.00;;;;;21.80;43.09;101113.47;5090764;28;47314;-74
2022/08/12 01:47:29;;;;;;;;;16.00;14.67;;;;;21.87;43.41;101121.44;5091721;28;45431;-74
2022/08/12 01:50:00;;;;;;;;;17.67;16.33;;;;;21.85;43.87;101123.56;5080632;27;44679;-75
2022/08/12 01:52:56;;;;;;;;;15.67;15.67;;;;;21.77;43.38;101112.06;5073396;28;45172;-74
2022/08/12 01:55:28;;;;;;;;;14.67;14.67;;;;;21.77;43.42;101108.53;5088830;28;45353;-74
2022/08/12 01:58:06;;;;;;;;;14.00;14.00;;;;;21.79;43.56;101115.34;5095544;27;45789;-74
2022/08/12 02:00:43;;;;;;;;;18.00;17.00;;;;;21.74;43.26;101107.13;5086262;28;45430;-75
2022/08/12 02:12:19;;;;;;;;;18.00;17.33;;;;;21.75;43.19;101108.78;5088405;28;45177;-75
2022/08/12 02:14:56;;;;;;;;;16.67;16.67;;;;;21.73;43.34;101100.03;5075148;28;45484;-75
2022/08/12 02:17:47;;;;;;;;;21.33;19.00;;;;;21.69;43.55;101102.44;5099326;27;47156;-75
2022/08/12 02:20:25;;;;;;;;;17.00;17.00;;;;;21.67;43.29;101104.53;5064658;28;45881;-74
2022/08/12 02:22:53;;;;;;;;;20.00;17.33;;;;;21.64;43.70;101109.63;5065924;28;45451;-74
2022/08/12 02:25:26;;;;;;;;;17.67;17.67;;;;;21.64;43.32;101101.50;5084429;28;45426;-75
2022/08/12 02:27:54;;;;;;;;;18.33;18.33;;;;;21.66;43.53;101102.06;5072647;28;46428;-75
2022/08/12 02:30:22;;;;;;;;;16.33;16.33;;;;;21.64;43.62;101102.31;5087089;28;45313;-75
2022/08/12 02:32:50;;;;;;;;;15.67;15.67;;;;;21.57;43.44;101088.94;5074697;28;45380;-75
2022/08/12 02:35:21;;;;;;;;;14.67;14.67;;;;;21.60;43.23;101105.72;5082393;28;45316;-75
2022/08/12 02:37:48;;;;;;;;;16.67;16.33;;;;;21.56;43.77;101100.00;5065894;28;48156;-74
2022/08/12 02:40:16;;;;;;;;;19.00;17.67;;;;;21.58;43.35;101106.00;5084568;28;45445;-75
2022/08/12 02:42:56;;;;;;;;;17.33;17.33;;;;;21.60;43.74;101111.13;5089769;28;45451;-75
2022/08/12 02:45:32;;;;;;;;;17.33;16.33;;;;;21.56;43.46;101095.44;5104782;27;45445;-75
2022/08/12 02:48:05;;;;;;;;;16.67;16.67;;;;;21.56;43.21;101090.00;5088785;28;47510;-75
2022/08/12 02:50:33;;;;;;;;;16.67;16.67;;;;;21.56;43.24;101090.00;5089233;28;44725;-75
2022/08/12 02:52:59;;;;;;;;;13.67;13.67;;;;;21.54;43.51;101084.00;5088797;28;45284;-75
2022/08/12 02:55:27;;;;;;;;;16.33;16.33;;;;;21.55;43.19;101085.66;5073577;28;45417;-75
2022/08/12 02:57:54;;;;;;;;;15.67;15.67;;;;;21.58;43.45;101078.97;5081738;28;46315;-75
2022/08/12 03:00:19;;;;;;;;;19.00;18.00;;;;;21.61;43.06;101083.06;5092255;28;44780;-74
2022/08/12 03:02:50;;;;;;;;;15.33;15.33;;;;;21.62;42.69;101076.59;5082010;27;44706;-74
2022/08/12 03:05:22;;;;;;;;;18.00;16.67;;;;;21.65;43.33;101092.31;5083487;28;45384;-75
2022/08/12 03:07:52;;;;;;;;;14.00;14.00;;;;;21.63;43.11;101091.72;5093183;27;47081;-75
2022/08/12 03:10:21;;;;;;;;;18.00;17.00;;;;;21.62;42.91;101090.09;5088155;28;45526;-75
2022/08/12 03:12:51;;;;;;;;;19.33;17.67;;;;;21.59;42.92;101096.81;5082491;28;45364;-74
2022/08/12 03:15:19;;;;;;;;;16.33;16.33;;;;;21.51;43.27;101073.69;5069908;28;45461;-74
2022/08/12 03:18:22;;;;;;;;;17.33;17.33;;;;;21.60;43.15;101087.63;5102163;27;46314;-74
2022/08/12 03:20:47;;;;;;;;;18.67;18.67;;;;;21.54;43.15;101086.72;5092530;28;45344;-74
2022/08/12 03:23:14;;;;;;;;;16.33;16.33;;;;;21.50;42.76;101073.91;5091392;28;45310;-75
2022/08/12 03:25:42;;;;;;;;;16.67;16.67;;;;;21.55;42.90;101082.16;5096018;28;45345;-75
2022/08/12 03:28:10;;;;;;;;;15.33;15.33;;;;;21.50;42.98;101076.63;5095475;27;46156;-75
2022/08/12 03:30:37;;;;;;;;;16.33;16.00;;;;;21.49;43.27;101083.91;5086869;28;45471;-75
2022/08/12 03:33:04;;;;;;;;;15.67;15.67;;;;;21.49;43.36;101077.69;5097445;28;44706;-75
2022/08/12 03:35:34;;;;;;;;;16.67;16.33;;;;;21.51;43.14;101092.59;5095801;28;47094;-75
2022/08/12 03:38:04;;;;;;;;;17.00;17.00;;;;;21.44;43.08;101081.09;5081664;28;46200;-75
2022/08/12 04:00:24;;;;;;;;;17.33;17.33;;;;;21.24;43.49;101066.09;5095755;28;45468;-74
2022/08/12 04:03:04;;;;;;;;;19.00;17.33;;;;;21.21;43.71;101071.16;5095582;28;44645;-74
2022/08/12 04:05:31;;;;;;;;;17.00;17.00;;;;;21.22;43.43;101076.31;5106835;27;44842;-74
2022/08/12 04:07:58;;;;;;;;;18.33;18.33;;;;;21.21;43.67;101071.97;5084301;28;45576;-75
2022/08/12 04:13:14;;;;;;;;;16.00;16.00;;;;;21.26;43.26;101080.22;5088215;28;45059;-74
2022/08/12 04:13:18;;;;;;;;;15.67;15.67;;;;;21.27;43.36;101081.84;5094407;28;45319;-75
2022/08/12 04:15:45;;;;;;;;;17.33;17.33;;;;;21.24;43.19;101078.78;5095266;27;45311;-74
2022/08/12 04:18:14;;;;;;;;;16.00;14.33;;;;;21.25;43.06;101067.75;5105855;27;44680;-74
2022/08/12 04:20:44;;;;;;;;;17.67;16.00;;;;;21.22;43.00;101070.13;5094574;27;45341;-74
2022/08/12 04:23:15;;;;;;;;;17.00;17.00;;;;;21.23;42.80;101067.19;5089218;28;45319;-75
2022/08/12 04:25:41;;;;;;;;;16.33;15.67;;;;;21.24;43.30;101079.63;5086367;28;45366;-75
2022/08/12 04:28:08;;;;;;;;;15.33;15.00;;;;;21.21;43.34;101080.09;5077593;28;44791;-75
2022/08/12 04:30:34;;;;;;;;;15.33;15.33;;;;;21.13;43.31;101075.88;5081973;28;47457;-74
2022/08/12 04:33:01;;;;;;;;;16.33;15.00;;;;;21.12;43.61;101076.09;5071871;28;44645;-74
2022/08/12 04:35:26;;;;;;;;;17.00;16.00;;;;;21.16;43.74;101080.00;5086969;28;45286;-74
2022/08/12 04:37:57;;;;;;;;;17.33;17.33;;;;;21.18;43.81;101088.66;5081516;28;45302;-76
2022/08/12 04:40:24;;;;;;;;;15.33;15.00;;;;;21.15;43.66;101084.56;5085330;28;46788;-76
2022/08/12 04:42:50;;;;;;;;;18.00;16.33;;;;;21.17;43.72;101081.63;5098539;27;45213;-75
2022/08/12 04:45:18;;;;;;;;;16.33;15.33;;;;;21.21;43.51;101079.25;5099180;28;45448;-75
2022/08/12 04:47:44;;;;;;;;;16.00;14.67;;;;;21.21;43.51;101093.59;5099650;28;45455;-75
2022/08/12 04:50:14;;;;;;;;;20.33;18.33;;;;;21.22;43.44;101097.13;5099297;27;46584;-75
2022/08/12 04:52:40;;;;;;;;;15.67;15.67;;;;;21.16;43.70;101093.50;5098651;28;46200;-75
2022/08/12 04:55:07;;;;;;;;;16.67;16.33;;;;;21.13;43.65;101091.28;5099266;28;45307;-76
2022/08/12 04:57:32;;;;;;;;;14.33;14.33;;;;;21.06;43.81;101086.00;5092807;28;47017;-76
2022/08/12 04:59:58;;;;;;;;;13.67;13.33;;;;;21.11;43.70;101091.50;5091326;28;46038;-76
2022/08/12 05:02:25;;;;;;;;;15.00;14.00;;;;;21.11;43.77;101093.38;5085652;28;44734;-76
2022/08/12 05:04:56;;;;;;;;;17.00;16.00;;;;;21.10;44.01;101091.75;5099950;28;44883;-75
2022/08/12 05:07:22;;;;;;;;;17.00;17.00;;;;;21.09;43.97;101084.69;5094936;28;45200;-75
2022/08/12 05:09:47;;;;;;;;;17.33;15.67;;;;;21.04;44.32;101083.53;5086966;28;46472;-76
2022/08/12 05:12:12;;;;;;;;;17.00;17.00;;;;;21.06;44.17;101088.69;5085712;28;45529;-75
2022/08/12 05:14:38;;;;;;;;;15.67;15.67;;;;;21.04;44.10;101091.63;5090969;27;44653;-75
2022/08/12 05:17:04;;;;;;;;;18.00;18.00;;;;;21.05;44.15;101100.56;5094954;27;45532;-76
2022/08/12 05:19:29;;;;;;;;;18.00;18.00;;;;;21.02;44.14;101095.63;5084664;27;48090;-74
2022/08/12 05:21:55;;;;;;;;;16.33;16.33;;;;;21.04;43.78;101098.94;5085713;28;45287;-75
2022/08/12 05:24:20;;;;;;;;;16.67;16.67;;;;;21.04;44.17;101101.63;5087934;28;45277;-75
2022/08/12 05:26:46;;;;;;;;;17.00;16.33;;;;;21.04;43.98;101094.31;5089014;28;45263;-75
2022/08/12 05:29:15;;;;;;;;;23.25;22.50;;;;;21.10;44.57;101106.06;5076375;28;47992;-78
2022/08/12 05:31:41;;;;;;;;;17.67;17.67;;;;;21.08;44.57;101094.69;5064723;28;45272;-79
2022/08/12 05:34:07;;;;;;;;;17.33;17.33;;;;;21.08;44.32;101104.66;5079197;28;45248;-77
2022/08/12 05:36:33;;;;;;;;;15.33;15.33;;;;;21.08;44.22;101107.38;5081323;28;45625;-78
2022/08/12 05:38:59;;;;;;;;;17.00;17.00;;;;;21.10;43.82;101114.16;5097218;27;47299;-74
2022/08/12 05:41:31;;;;;;;;;17.00;17.00;;;;;21.15;44.46;101108.06;5082645;28;45411;-76
2022/08/12 05:44:02;;;;;;;;;18.67;18.67;;;;;21.15;44.04;101114.28;5084727;28;45220;-75
2022/08/12 05:46:29;;;;;;;;;14.00;14.00;;;;;21.23;44.16;101117.69;5075261;28;46760;-75
2022/08/12 05:48:55;;;;;;;;;16.67;16.67;;;;;21.24;43.85;101114.75;5081311;28;47233;-75
2022/08/12 05:51:28;;;;;;;;;16.33;16.00;;;;;21.19;43.93;101106.56;5083888;28;45356;-74
2022/08/12 05:53:54;;;;;;;;;13.67;13.67;;;;;21.26;44.71;101106.41;5086510;28;45314;-75
2022/08/12 05:56:28;;;;;;;;;16.67;15.67;;;;;21.26;44.10;101112.66;5068392;28;45287;-73
2022/08/12 05:58:55;;;;;;;;;2.00;0.00;;;;;21.27;43.86;101114.28;5069408;28;46483;-75
2022/08/12 06:01:22;;;;;;;;;16.67;16.33;;;;;21.32;44.28;101116.28;5091594;27;45315;-74
2022/08/12 06:03:48;;;;;;;;;16.67;16.67;;;;;21.29;43.88;101105.94;5094691;27;45374;-75
2022/08/12 06:06:18;;;;;;;;;19.67;18.00;;;;;21.41;44.22;101119.44;5068196;28;46402;-75
2022/08/12 06:08:47;;;;;;;;;17.00;16.33;;;;;21.42;43.25;101104.84;5069403;28;47383;-76
2022/08/12 06:11:17;;;;;;;;;13.67;13.67;;;;;21.49;43.27;101097.41;5071429;28;45440;-74
2022/08/12 06:13:44;;;;;;;;;15.33;15.33;;;;;21.51;43.42;101103.41;5069981;28;45353;-75
2022/08/12 06:16:11;;;;;;;;;19.00;18.33;;;;;21.58;43.04;101103.28;5069705;27;45243;-74
2022/08/12 06:18:39;;;;;;;;;16.00;16.00;;;;;21.63;43.50;101106.09;5071158;28;47084;-75
2022/08/12 06:21:09;;;;;;;;;17.00;17.00;;;;;21.63;43.06;101095.28;5069079;28;45462;-75
2022/08/12 06:23:36;;;;;;;;;16.33;16.33;;;;;21.72;43.21;101097.59;5069074;28;45413;-73
2022/08/12 06:26:02;;;;;;;;;20.00;20.00;;;;;21.72;42.56;101092.16;5074336;28;45650;-75
2022/08/12 06:28:29;;;;;;;;;16.00;15.33;;;;;21.79;43.07;101101.03;5078617;28;46973;-75
2022/08/12 06:30:56;;;;;;;;;18.00;16.00;;;;;21.85;43.36;101104.63;5070956;28;46122;-75
2022/08/12 06:33:22;;;;;;;;;15.33;15.33;;;;;21.87;43.67;101088.97;5075121;28;45609;-74
2022/08/12 06:35:48;;;;;;;;;18.00;18.00;;;;;21.93;43.11;101096.13;5075564;28;46156;-75
2022/08/12 06:38:21;;;;;;;;;18.33;18.33;;;;;22.02;42.89;101105.50;5060014;28;45583;-74
2022/08/12 06:43:34;;;;;;;;;18.00;18.00;;;;;22.07;42.84;101091.25;5064226;28;45339;-74
2022/08/12 06:45:59;;;;;;;;;18.00;16.67;;;;;22.15;43.22;101090.81;5060444;28;45547;-74
2022/08/12 06:48:27;;;;;;;;;16.33;16.33;;;;;22.28;42.77;101105.13;5059017;28;45430;-74
2022/08/12 06:50:56;;;;;;;;;17.67;17.00;;;;;22.33;43.19;101097.91;5076350;28;45381;-73
2022/08/12 06:53:23;;;;;;;;;15.33;15.33;;;;;22.42;42.71;101109.16;5076430;27;45830;-75
2022/08/12 06:55:49;;;;;;;;;18.00;17.00;;;;;22.48;42.53;101109.25;5087220;27;44775;-76
2022/08/12 06:58:15;;;;;;;;;15.33;15.33;;;;;22.61;42.66;101119.78;5092889;28;47349;-74
2022/08/12 07:00:45;;;;;;;;;18.00;18.00;;;;;22.68;42.92;101125.03;5080518;27;45656;-74
2022/08/12 07:03:16;;;;;;;;;18.00;18.00;;;;;22.76;42.63;101112.97;5064957;28;45694;-75
2022/08/12 07:05:42;;;;;;;;;17.33;17.00;;;;;22.87;41.72;101105.81;5084575;28;45505;-74
2022/08/12 07:08:08;;;;;;;;;14.67;14.67;;;;;22.96;41.72;101109.75;5082073;28;48419;-75
2022/08/12 07:10:42;;;;;;;;;18.67;18.67;;;;;23.03;42.21;101113.09;5077714;28;45306;-74
2022/08/12 07:13:09;;;;;;;;;17.00;16.33;;;;;23.10;41.58;101112.09;5081645;28;45712;-75
2022/08/12 07:15:35;;;;;;;;;16.00;16.00;;;;;23.16;41.58;101102.94;5085599;27;45367;-74
2022/08/12 07:20:39;;;;;;;;;18.00;18.00;;;;;23.31;41.45;101105.88;5077886;28;45498;-74
2022/08/12 07:23:05;;;;;;;;;16.33;16.33;;;;;23.41;41.72;101121.47;5086048;27;45337;-73
2022/08/12 07:25:35;;;;;;;;;16.33;15.67;;;;;23.51;41.37;101109.94;5071589;28;45364;-73
2022/08/12 07:28:10;;;;;;;;;15.67;15.67;;;;;23.58;41.10;101102.41;5083878;28;46339;-73
2022/08/12 07:30:38;;;;;;;;;16.67;16.33;;;;;23.69;40.59;101113.38;5074461;28;44762;-73
2022/08/12 07:33:07;;;;;;;;;15.67;15.67;;;;;23.75;40.77;101103.41;5079895;28;45364;-73
2022/08/12 07:35:34;;;;;;;;;16.67;16.67;;;;;23.88;40.74;101107.63;5076978;28;45945;-76
2022/08/12 07:38:00;;;;;;;;;16.33;16.00;;;;;23.96;40.47;101109.88;5076881;27;47190;-76
2022/08/12 07:40:28;;;;;;;;;18.67;18.67;;;;;24.08;40.56;101105.13;5069283;27;45321;-77
2022/08/12 07:42:54;;;;;;;;;17.00;16.67;;;;;24.18;39.92;101106.31;5062131;28;45422;-77
2022/08/12 07:45:20;;;;;;;;;18.00;17.33;;;;;24.29;39.73;101108.03;5075440;28;46276;-75
2022/08/12 07:47:47;;;;;;;;;17.33;16.67;;;;;24.42;39.48;101114.13;5074234;28;45512;-75
2022/08/12 07:50:16;;;;;;;;;16.67;15.67;;;;;24.52;39.76;101116.09;5061263;28;45432;-76
2022/08/12 07:52:45;;;;;;;;;15.67;15.67;;;;;24.61;39.84;101109.13;5074683;27;45412;-77
2022/08/12 07:55:12;;;;;;;;;16.33;16.33;;;;;24.73;39.56;101102.66;5076845;28;46370;-76
2022/08/12 07:57:58;;;;;;;;;15.00;15.00;;;;;24.86;39.49;101104.09;5076351;28;48196;-76
2022/08/12 08:00:30;;;;;;;;;15.67;15.67;;;;;24.94;39.20;101107.19;5077113;28;45331;-76
2022/08/12 08:02:57;;;;;;;;;14.33;14.33;;;;;25.03;38.39;101098.53;5076835;28;45497;-76
2022/08/12 08:05:24;;;;;;;;;15.67;15.67;;;;;25.18;38.66;101105.94;5090954;27;46119;-75
2022/08/12 08:07:52;;;;;;;;;17.00;17.00;;;;;25.26;38.15;101099.19;5078062;28;46591;-75
2022/08/12 08:10:17;;;;;;;;;12.00;12.00;;;;;25.43;38.05;101110.69;5077788;28;45353;-76
2022/08/12 08:12:57;;;;;;;;;14.33;14.00;;;;;25.53;37.71;101095.47;5078951;28;45568;-75
2022/08/12 08:15:26;;;;;;;;;17.67;17.67;;;;;25.67;38.08;101096.63;5078555;28;46639;-76
2022/08/12 08:18:03;;;;;;;;;16.33;16.33;;;;;25.82;37.33;101106.75;5087894;27;47617;-76
2022/08/12 08:20:40;;;;;;;;;17.33;16.67;;;;;25.92;37.04;101091.53;5090320;27;45369;-77
2022/08/12 08:23:10;;;;;;;;;15.67;15.67;;;;;26.09;36.67;101102.97;5081396;28;45227;-76
2022/08/12 08:25:37;;;;;;;;;17.67;16.67;;;;;26.21;37.16;101104.59;5079994;28;47313;-76
2022/08/12 08:28:11;;;;;;;;;13.67;13.67;;;;;26.32;36.89;101102.72;5083962;27;47320;-75
2022/08/12 08:30:42;;;;;;;;;13.67;13.67;;;;;26.48;36.36;101103.53;5079868;28;45473;-76
2022/08/12 08:33:08;;;;;;;;;13.67;13.67;;;;;26.65;35.68;101107.88;5081496;28;45459;-75
2022/08/12 08:35:35;;;;;;;;;14.00;14.00;;;;;26.79;35.33;101110.88;5079838;28;46203;-75
2022/08/12 08:38:12;;;;;;;;;15.33;14.00;;;;;26.86;35.56;101095.03;5074659;28;45435;-76
2022/08/12 08:43:28;;;;;;;;;12.00;12.00;;;;;27.22;34.70;101107.78;5076347;28;45158;-75
2022/08/12 08:45:55;;;;;;;;;12.00;11.00;;;;;27.28;34.59;101098.47;5081117;27;45427;-75
2022/08/12 08:48:21;;;;;;;;;13.33;13.33;;;;;27.41;34.59;101107.16;5082179;28;45470;-76
2022/08/12 08:50:47;;;;;;;;;14.67;14.67;;;;;27.57;34.21;101113.34;5082657;28;45351;-75
2022/08/12 08:53:12;;;;;;;;;14.33;13.67;;;;;27.73;34.57;101119.56;5072975;28;45410;-74
2022/08/12 08:55:39;;;;;;;;;13.33;13.00;;;;;27.87;34.03;101116.22;5070882;28;46009;-75
2022/08/12 08:58:05;;;;;;;;;14.00;14.00;;;;;27.99;33.53;101122.13;5080913;28;46332;-75
2022/08/12 09:00:30;;;;;;;;;10.00;10.00;;;;;28.08;33.12;101106.78;5090202;27;45306;-75
2022/08/12 09:02:55;;;;;;;;;13.33;11.33;;;;;28.20;32.47;101109.16;5059859;28;45292;-74
2022/08/12 09:05:21;;;;;;;;;10.67;10.67;;;;;28.30;32.64;101104.72;5064619;28;45607;-74
2022/08/12 09:07:48;;;;;;;;;12.00;12.00;;;;;28.36;31.87;101092.63;5058664;28;49287;-75
2022/08/12 09:10:18;;;;;;;;;13.67;13.00;;;;;28.51;31.48;101099.06;5073229;28;45319;-76
2022/08/12 09:15:30;;;;;;;;;10.67;10.33;;;;;28.73;31.60;101104.06;5059896;28;45433;-75
2022/08/12 09:17:59;;;;;;;;;12.33;11.33;;;;;28.85;31.40;101104.47;5065412;27;45800;-75
2022/08/12 09:20:26;;;;;;;;;9.00;9.00;;;;;28.94;31.28;101106.59;5060176;28;46655;-73
2022/08/12 09:22:53;;;;;;;;;11.33;11.33;;;;;29.02;30.98;101097.75;5072301;28;45603;-74
2022/08/12 09:25:20;;;;;;;;;11.00;11.00;;;;;29.10;30.59;101094.38;5061102;28;46505;-74
2022/08/12 09:27:46;;;;;;;;;11.33;11.33;;;;;29.23;30.59;101098.31;5058235;28;48212;-74
2022/08/12 09:30:14;;;;;;;;;10.67;9.00;;;;;29.45;29.78;101087.91;5092681;27;45294;-75
2022/08/12 09:32:49;;;;;;;;;9.67;9.33;;;;;29.39;30.18;101089.88;5070205;28;45582;-75
2022/08/12 09:35:19;;;;;;;;;10.00;9.00;;;;;29.52;29.86;101084.78;5066239;28;45445;-75
2022/08/12 09:37:50;;;;;;;;;8.33;8.33;;;;;29.60;29.54;101087.72;5057671;28;47063;-74
2022/08/12 09:40:17;;;;;;;;;8.67;8.67;;;;;29.69;29.78;101081.59;5071513;28;45489;-74
2022/08/12 09:45:29;;;;;;;;;10.00;10.00;;;;;29.78;28.78;101077.03;5077735;28;45531;-75
2022/08/12 09:47:54;;;;;;;;;10.67;10.67;;;;;29.93;28.51;101080.66;5073799;28;46168;-74
2022/08/12 09:50:21;;;;;;;;;10.00;8.67;;;;;30.04;28.96;101081.31;5080107;27;45475;-76
2022/08/12 09:52:51;;;;;;;;;9.00;9.00;;;;;30.18;28.38;101084.94;5070525;27;45468;-76
2022/08/12 09:55:17;;;;;;;;;9.67;9.67;;;;;30.27;27.88;101085.06;5079901;28;45550;-76
2022/08/12 09:57:42;;;;;;;;;9.67;9.67;;;;;30.43;27.82;101082.06;5091114;27;47407;-74
2022/08/12 10:00:10;;;;;;;;;10.67;9.67;;;;;30.56;27.89;101083.19;5061953;28;47451;-75
2022/08/12 10:02:37;;;;;;;;;8.00;8.00;;;;;30.61;27.26;101067.47;5058627;28;45331;-74
2022/08/12 10:05:04;;;;;;;;;8.33;8.33;;;;;30.76;27.18;101068.28;5059601;28;45591;-74
2022/08/12 10:07:30;;;;;;;;;8.33;8.33;;;;;30.89;26.59;101069.44;5074940;27;47594;-74
2022/08/12 10:09:55;;;;;;;;;10.33;9.67;;;;;30.99;26.67;101073.88;5062947;28;45395;-74
2022/08/12 10:15:05;;;;;;;;;10.00;10.00;;;;;31.26;25.36;101061.25;5080107;28;45441;-74
2022/08/12 10:17:30;;;;;;;;;7.67;7.00;;;;;31.43;25.94;101066.13;5091479;27;48027;-73
2022/08/12 10:19:56;;;;;;;;;9.67;9.33;;;;;31.57;25.82;101055.09;5079847;28;45331;-73
2022/08/12 10:22:22;;;;;;;;;9.00;9.00;;;;;31.71;26.56;101057.78;5079792;28;45336;-74
2022/08/12 10:29:35;;;;;;;;;9.67;9.67;;;;;31.84;25.82;101047.84;5080789;28;45520;-74
2022/08/12 10:30:18;;;;;;;;;8.00;8.00;;;;;32.19;24.98;101057.47;5079904;28;45365;-75
2022/08/12 10:32:54;;;;;;;;;9.00;9.00;;;;;32.37;24.12;101050.13;5070198;28;45271;-74
2022/08/12 10:35:19;;;;;;;;;10.00;10.00;;;;;32.52;24.63;101048.09;5084799;27;45345;-76
2022/08/12 10:37:45;;;;;;;;;5.67;5.67;;;;;32.65;24.43;101049.94;5085586;28;47087;-75
2022/08/12 10:40:11;;;;;;;;;7.67;7.67;;;;;32.82;24.15;101045.63;5076934;28;45420;-75
2022/08/12 10:45:23;;;;;;;;;5.00;5.00;;;;;33.20;23.70;101038.75;5082390;28;45278;-75
2022/08/12 10:47:51;;;;;;;;;10.33;9.33;;;;;33.33;23.26;101031.47;5078701;28;47523;-74
2022/08/12 10:50:21;;;;;;;;;8.67;8.67;;;;;33.52;23.28;101027.59;5069146;28;47540;-75
2022/08/12 10:52:46;;;;;;;;;8.33;8.33;;;;;33.70;22.53;101020.16;5081195;28;45419;-74
2022/08/12 10:55:12;;;;;;;;;9.00;8.00;;;;;33.85;22.89;101018.81;5077462;28;45421;-76
2022/08/12 10:57:37;;;;;;;;;9.33;9.00;;;;;34.04;22.27;101029.47;5071128;28;47244;-75
2022/08/12 11:00:05;;;;;;;;;7.00;7.00;;;;;34.13;21.97;101021.19;5064758;28;45271;-74
2022/08/12 11:02:31;;;;;;;;;6.33;6.33;;;;;34.24;21.66;101021.66;5083322;27;45616;-75
2022/08/12 11:04:58;;;;;;;;;8.33;8.33;;;;;34.37;21.54;101023.41;5066974;28;45847;-75
2022/08/12 11:07:24;;;;;;;;;10.00;9.33;;;;;34.49;21.57;101016.34;5075069;28;47216;-75
2022/08/12 11:09:50;;;;;;;;;10.33;8.67;;;;;34.58;21.80;101017.13;5067009;28;45828;-74
2022/08/12 11:12:17;;;;;;;;;7.67;7.67;;;;;34.73;20.93;101018.53;5079044;28;45250;-74
2022/08/12 11:14:43;;;;;;;;;8.00;8.00;;;;;34.88;21.19;101022.66;5085571;27;47038;-74
2022/08/12 11:17:13;;;;;;;;;9.00;8.67;;;;;35.04;20.61;101012.97;5084581;27;47082;-74
2022/08/12 11:19:40;;;;;;;;;8.00;8.00;;;;;35.20;21.02;101008.50;5076252;28;45307;-74
2022/08/12 11:22:08;;;;;;;;;8.00;8.00;;;;;35.23;20.39;100994.00;5079716;28;45383;-76
2022/08/12 11:24:34;;;;;;;;;9.00;8.00;;;;;35.39;20.24;100996.13;5079480;28;45458;-76
2022/08/12 11:27:01;;;;;;;;;9.33;8.33;;;;;35.45;20.08;100994.78;5078135;28;47366;-77
2022/08/12 11:29:28;;;;;;;;;9.00;9.00;;;;;35.49;20.19;100981.09;5080943;27;45343;-78
2022/08/12 11:31:54;;;;;;;;;9.33;9.33;;;;;35.61;19.93;100986.66;5067197;28;45343;-76
2022/08/12 11:34:20;;;;;;;;;8.67;8.67;;;;;35.62;19.83;100973.66;5076253;28;46526;-75
2022/08/12 11:36:50;;;;;;;;;7.33;7.33;;;;;35.71;20.03;100970.81;5071268;28;45429;-75
2022/08/12 11:39:16;;;;;;;;;8.33;8.33;;;;;35.78;19.98;100967.47;5072200;28;45377;-75
2022/08/12 11:41:42;;;;;;;;;8.67;8.00;;;;;35.84;19.99;100969.69;5080723;27;45397;-75
2022/08/12 11:44:07;;;;;;;;;8.67;8.67;;;;;35.87;18.80;100974.53;5069109;28;45290;-75
2022/08/12 11:46:37;;;;;;;;;9.00;8.33;;;;;35.97;19.21;100970.50;5073741;28;46493;-75
2022/08/12 11:49:06;;;;;;;;;8.67;8.67;;;;;36.11;19.71;100972.94;5080969;28;45728;-76
2022/08/12 11:51:33;;;;;;;;;8.33;8.33;;;;;36.27;19.51;100969.53;5069734;28;45403;-76
2022/08/12 11:53:58;;;;;;;;;8.67;8.67;;;;;36.39;19.89;100971.50;5076990;28;45520;-75
2022/08/12 11:56:23;;;;;;;;;10.33;9.67;;;;;36.46;19.02;100957.06;5074520;28;45657;-76
2022/08/12 11:58:49;;;;;;;;;8.67;8.67;;;;;36.51;19.42;100954.06;5065228;28;45319;-76
2022/08/12 12:01:15;;;;;;;;;8.67;8.00;;;;;36.58;19.44;100959.81;5082140;28;45346;-77
2022/08/12 12:03:40;;;;;;;;;9.33;9.33;;;;;36.66;19.06;100960.84;5083890;28;45362;-77
2022/08/12 12:06:06;;;;;;;;;9.33;9.33;;;;;36.76;19.19;100959.56;5077867;28;45385;-76
2022/08/12 12:08:32;;;;;;;;;9.00;9.00;;;;;36.75;18.90;100957.97;5077241;28;45604;-75
2022/08/12 12:10:57;;;;;;;;;8.33;8.33;;;;;36.80;18.96;100954.16;5081519;27;45277;-75
2022/08/12 12:13:23;;;;;;;;;6.00;6.00;;;;;36.95;18.23;100955.34;5071480;28;45562;-75
2022/08/12 12:15:48;;;;;;;;;9.00;9.00;;;;;36.98;18.80;100955.47;5083192;27;48488;-79
2022/08/12 12:18:28;;;;;;;;;9.00;8.33;;;;;37.05;18.55;100949.34;5080512;28;45282;-77
2022/08/12 12:20:56;;;;;;;;;7.33;7.33;;;;;37.15;18.33;100950.78;5081078;28;45337;-78
2022/08/12 12:23:22;;;;;;;;;8.00;8.00;;;;;37.21;18.24;100938.34;5081641;28;47017;-77
2022/08/12 12:25:47;;;;;;;;;8.67;8.67;;;;;37.32;18.80;100933.09;5079632;28;47985;-77
2022/08/12 12:28:13;;;;;;;;;8.00;8.00;;;;;37.43;18.67;100940.88;5081532;28;45430;-77
2022/08/12 12:30:39;;;;;;;;;9.00;9.00;;;;;37.44;18.87;100932.22;5076814;28;45348;-77
2022/08/12 12:33:07;;;;;;;;;9.00;8.00;;;;;37.43;18.43;100929.81;5066434;28;46972;-77
2022/08/12 12:35:33;;;;;;;;;9.33;9.33;;;;;37.47;17.57;100914.84;5076708;27;48261;-78
2022/08/12 12:38:18;;;;;;;;;8.67;8.67;;;;;37.58;17.71;100920.69;5077146;28;45342;-75
2022/08/12 12:40:46;;;;;;;;;9.00;9.00;;;;;37.68;16.70;100935.22;5082202;28;45482;-78
2022/08/12 12:43:13;;;;;;;;;8.00;8.00;;;;;37.72;17.79;100930.56;5080211;28;45881;-78
2022/08/12 12:45:39;;;;;;;;;9.00;9.00;;;;;37.73;17.73;100921.06;5076876;28;47213;-77
2022/08/12 12:48:07;;;;;;;;;10.00;10.00;;;;;37.87;17.76;100942.81;5080454;28;45298;-76
2022/08/12 12:50:35;;;;;;;;;8.67;8.67;;;;;37.92;17.53;100922.31;5082465;28;45411;-76
2022/08/12 12:53:01;;;;;;;;;9.00;8.00;;;;;37.88;17.57;100931.38;5077747;27;45230;-77
2022/08/12 12:55:27;;;;;;;;;9.00;8.00;;;;;37.89;17.97;100927.41;5064240;28;47261;-77
2022/08/12 12:57:52;;;;;;;;;7.00;7.00;;;;;37.98;17.43;100910.59;5082121;28;45447;-78
2022/08/12 13:00:20;;;;;;;;;10.33;9.00;;;;;38.07;17.74;100918.75;5079576;28;45193;-78
2022/08/12 13:02:55;;;;;;;;;8.67;8.67;;;;;38.14;17.26;100924.44;5079528;28;46405;-76
2022/08/12 13:05:30;;;;;;;;;7.67;6.67;;;;;38.27;17.32;100918.81;5071410;28;48367;-77